Terminal Aerodrome Forecast
Issued by NWS

Home | Current Version | Previous Version | Text Only | Print | Product List | Glossary On
Versions: 1 2 3 4 5 6 7 8 9 10 11 12 13 14 15 16 17 18 19 20 21
000
FTUS42 KGSP 240500 RRA
TAFGMU
TAF
KGMU 240542Z 2406/2506 26004KT P6SM BKN070 OVC100
     FM241100 25006KT P6SM BKN070
     FM241900 24007KT P6SM -SHRA VCTS BKN070CB PROB30 2419/2422 4SM
      TSRA BKN040CB
     FM250000 24004KT P6SM BKN040
     FM250500 00000KT P6SM SCT150=

USA.gov is the U.S. government's official web portal to all federal, state and local government web resources and services.